Impacts TAF Board
For situational awareness. Not to be used for flight planning purposes.
IDs:

KORD - Chicago/O'Hare Intl, IL, US

Issued at 0520 UTC 20 Oct 2018
Updated at 0626 UTC 20 Oct 2018
Potential Impact None Slight Moderate High
Time0551Z 20/07Z 20/08Z 20/09Z 20/10Z 20/11Z 20/12Z 20/13Z 20/14Z 20/15Z 20/16Z 20/17Z 20/18Z 20/19Z>>
Type OBS PRVL PRVL PRVL PRVL PRVL PRVL PRVL PRVL PRVL PRVL PRVL
  [TEMP]  
PRVL
  [TEMP]  
PRVL
VIS 10 >6 >6 >6 >6 >6 >6 >6 >6 >6 >6 >6
  [4]  
>6
  [4]  
>6
CIG -- -- -- -- -- -- -- -- -- 60 60 60
  [40]  
60
  [40]  
--
Cover CLR SKC SKC SKC SKC SKC SKC FEW FEW OVC OVC OVC
  [OVC]  
OVC
  [OVC]  
SCT
FltCat VFR VFR VFR VFR VFR VFR VFR VFR VFR VFR VFR VFR
  [MVFR]  
VFR
  [MVFR]  
VFR
WX -- -- -- -- -- -- -- -- -- -- -- --
  [-SHRA -SHGS]  
--
  [-SHRA -SHGS]  
--
WDir 250 270 270 270 270 270 270 280 280 320 320 320
[320]
320
[320]
330
WSpd 7 10 10 10 10 10 10 15 15 25 25 25
  [25]  
25
  [25]  
20
WGst -- -- -- -- -- -- -- 23 23 37 37 37
  [37]  
37
  [37]  
32
Raw TAF
KORD 200520Z 2006/2112 27010KT P6SM SKC
  FM201300 28015G23KT P6SM FEW060
  FM201500 32025G37KT P6SM OVC060
  TEMPO 2017/2019 4SM -SHRAGS OVC040
  FM201900 33020G32KT P6SM SCT060
  FM202300 33014G21KT P6SM FEW060
  FM210200 32008KT P6SM SKC


Raw METAR
KORD 200551Z 25007KT 10SM CLR 10/08 A2985 RMK AO2 SLP109 60000 T01000078 10122 20100 401220078 51005
KORD 200451Z 25006KT 10SM CLR 11/09 A2984 RMK AO2 SLP107 T01060089
KORD 200351Z 25008KT 10SM FEW070 12/09 A2984 RMK AO2 SLP105 T01170094

METAR Board
Radar Display
Forecast Discussion
For situational awareness. Not to be used for flight planning purposes.